Du Bois, Pennsylvania
Current Conditions -  °F | °C
As of 12:53 AM on Sunday 23 Nov 2014 (Local Time) from KDUJ Reporting Station
Light Rain Light Rain  
Wind Chill:   Ceiling: 6000
Heat Index:   Visibility: 10mi
Dew Point:   Wind: 9mph
Humidity: 74%   Direction: 230°SW
Pressure: 30.08"   Gusts: NA
Location:  41.12°N, 78.76°W
Report Text: KDUJ 230553Z AUTO 23008KT 10SM -RA SCT045 OVC060 06/02 A3008 RMK AO2 RAE01B37 SLP197 P0001 60002 T00610017 10072 20039 55000
Loading
Personal Weather Stations






























Interactive Weather Map New forecast layout! Learn more

10-Day Weather Forecast

Advertisements
Track Severe Weather on mobile